sensor_id;sensor_type;location;lat;lon;timestamp;temperature;humidity
20998;DHT22;10657;51.276;6.390;2023-06-14T00:01:55;21.70;64.20
20998;DHT22;10657;51.276;6.390;2023-06-14T00:04:22;21.50;65.00
20998;DHT22;10657;51.276;6.390;2023-06-14T00:06:52;21.60;65.20
20998;DHT22;10657;51.276;6.390;2023-06-14T00:09:19;21.50;65.30
20998;DHT22;10657;51.276;6.390;2023-06-14T00:11:45;21.20;66.00
20998;DHT22;10657;51.276;6.390;2023-06-14T00:14:12;21.20;66.10
20998;DHT22;10657;51.276;6.390;2023-06-14T00:16:40;21.10;65.80
20998;DHT22;10657;51.276;6.390;2023-06-14T00:19:09;21.10;66.20
20998;DHT22;10657;51.276;6.390;2023-06-14T00:21:37;21.10;65.80
20998;DHT22;10657;51.276;6.390;2023-06-14T00:24:04;21.10;66.00
20998;DHT22;10657;51.276;6.390;2023-06-14T00:26:31;21.10;65.60
20998;DHT22;10657;51.276;6.390;2023-06-14T00:28:58;21.10;66.10
20998;DHT22;10657;51.276;6.390;2023-06-14T00:31:25;21.10;66.10
20998;DHT22;10657;51.276;6.390;2023-06-14T00:33:51;20.90;66.50
20998;DHT22;10657;51.276;6.390;2023-06-14T00:36:18;21.00;67.00
20998;DHT22;10657;51.276;6.390;2023-06-14T00:38:45;20.90;67.20
20998;DHT22;10657;51.276;6.390;2023-06-14T00:41:11;20.80;68.10
20998;DHT22;10657;51.276;6.390;2023-06-14T00:43:38;20.70;67.60
20998;DHT22;10657;51.276;6.390;2023-06-14T00:46:05;20.70;67.60
20998;DHT22;10657;51.276;6.390;2023-06-14T00:48:32;20.70;67.70
20998;DHT22;10657;51.276;6.390;2023-06-14T00:51:00;20.60;67.80
20998;DHT22;10657;51.276;6.390;2023-06-14T00:53:31;20.70;67.70
20998;DHT22;10657;51.276;6.390;2023-06-14T00:56:00;20.70;67.80
20998;DHT22;10657;51.276;6.390;2023-06-14T00:58:27;20.80;68.50
20998;DHT22;10657;51.276;6.390;2023-06-14T01:00:54;20.90;68.20
20998;DHT22;10657;51.276;6.390;2023-06-14T01:03:21;20.90;68.50
20998;DHT22;10657;51.276;6.390;2023-06-14T01:09:18;20.90;70.30
20998;DHT22;10657;51.276;6.390;2023-06-14T01:11:59;20.80;70.90
20998;DHT22;10657;51.276;6.390;2023-06-14T01:14:27;20.70;70.70
20998;DHT22;10657;51.276;6.390;2023-06-14T01:16:58;20.60;70.60
20998;DHT22;10657;51.276;6.390;2023-06-14T01:19:27;20.70;70.80
20998;DHT22;10657;51.276;6.390;2023-06-14T01:21:55;20.60;71.20
20998;DHT22;10657;51.276;6.390;2023-06-14T01:24:22;20.50;71.30
20998;DHT22;10657;51.276;6.390;2023-06-14T01:26:55;20.40;71.70
20998;DHT22;10657;51.276;6.390;2023-06-14T01:29:26;20.40;71.80
20998;DHT22;10657;51.276;6.390;2023-06-14T01:31:54;20.40;72.10
20998;DHT22;10657;51.276;6.390;2023-06-14T01:34:21;20.20;72.20
20998;DHT22;10657;51.276;6.390;2023-06-14T01:36:50;20.20;72.80
20998;DHT22;10657;51.276;6.390;2023-06-14T01:39:17;20.20;72.70
20998;DHT22;10657;51.276;6.390;2023-06-14T01:41:45;20.20;73.00
20998;DHT22;10657;51.276;6.390;2023-06-14T01:44:14;20.10;73.50
20998;DHT22;10657;51.276;6.390;2023-06-14T01:46:42;20.10;74.50
20998;DHT22;10657;51.276;6.390;2023-06-14T01:49:10;20.00;74.50
20998;DHT22;10657;51.276;6.390;2023-06-14T01:51:37;20.00;74.80
20998;DHT22;10657;51.276;6.390;2023-06-14T01:54:04;20.10;75.20
20998;DHT22;10657;51.276;6.390;2023-06-14T01:56:30;20.00;75.10
20998;DHT22;10657;51.276;6.390;2023-06-14T01:58:58;20.10;75.50
20998;DHT22;10657;51.276;6.390;2023-06-14T02:01:25;20.10;75.50
20998;DHT22;10657;51.276;6.390;2023-06-14T02:03:53;20.00;75.60
20998;DHT22;10657;51.276;6.390;2023-06-14T02:06:20;20.00;76.00
20998;DHT22;10657;51.276;6.390;2023-06-14T02:08:46;19.90;76.70
20998;DHT22;10657;51.276;6.390;2023-06-14T02:11:14;19.90;77.00
20998;DHT22;10657;51.276;6.390;2023-06-14T02:13:42;19.60;77.90
20998;DHT22;10657;51.276;6.390;2023-06-14T02:16:08;19.50;78.60
20998;DHT22;10657;51.276;6.390;2023-06-14T02:18:36;19.50;79.00
20998;DHT22;10657;51.276;6.390;2023-06-14T02:21:02;19.50;79.00
20998;DHT22;10657;51.276;6.390;2023-06-14T02:23:29;19.50;78.60
20998;DHT22;10657;51.276;6.390;2023-06-14T02:25:59;19.40;79.50
20998;DHT22;10657;51.276;6.390;2023-06-14T02:28:25;19.20;79.40
20998;DHT22;10657;51.276;6.390;2023-06-14T02:30:52;19.30;79.70
20998;DHT22;10657;51.276;6.390;2023-06-14T02:33:19;19.20;79.70
20998;DHT22;10657;51.276;6.390;2023-06-14T02:35:46;19.20;79.60
20998;DHT22;10657;51.276;6.390;2023-06-14T02:38:14;19.20;79.10
20998;DHT22;10657;51.276;6.390;2023-06-14T02:40:40;19.40;79.10
20998;DHT22;10657;51.276;6.390;2023-06-14T02:43:09;19.30;79.70
20998;DHT22;10657;51.276;6.390;2023-06-14T02:45:35;19.30;79.60
20998;DHT22;10657;51.276;6.390;2023-06-14T02:48:02;19.30;79.60
20998;DHT22;10657;51.276;6.390;2023-06-14T02:50:29;19.20;80.20
20998;DHT22;10657;51.276;6.390;2023-06-14T02:52:56;18.90;81.50
20998;DHT22;10657;51.276;6.390;2023-06-14T02:55:23;19.00;82.10
20998;DHT22;10657;51.276;6.390;2023-06-14T02:57:50;19.00;82.70
20998;DHT22;10657;51.276;6.390;2023-06-14T03:00:17;19.00;82.70
20998;DHT22;10657;51.276;6.390;2023-06-14T03:02:45;18.90;83.20
20998;DHT22;10657;51.276;6.390;2023-06-14T03:05:12;18.90;83.50
20998;DHT22;10657;51.276;6.390;2023-06-14T03:07:39;19.00;83.80
20998;DHT22;10657;51.276;6.390;2023-06-14T03:10:08;19.00;83.60
20998;DHT22;10657;51.276;6.390;2023-06-14T03:12:35;19.00;84.40
20998;DHT22;10657;51.276;6.390;2023-06-14T03:15:03;18.90;84.90
20998;DHT22;10657;51.276;6.390;2023-06-14T03:17:30;18.80;85.70
20998;DHT22;10657;51.276;6.390;2023-06-14T03:20:00;18.80;86.50
20998;DHT22;10657;51.276;6.390;2023-06-14T03:22:27;18.80;87.00
20998;DHT22;10657;51.276;6.390;2023-06-14T03:24:55;18.70;87.50
20998;DHT22;10657;51.276;6.390;2023-06-14T03:27:21;18.80;87.40
20998;DHT22;10657;51.276;6.390;2023-06-14T03:29:48;18.70;87.40
20998;DHT22;10657;51.276;6.390;2023-06-14T03:32:15;18.70;87.50
20998;DHT22;10657;51.276;6.390;2023-06-14T03:34:41;18.70;89.10
20998;DHT22;10657;51.276;6.390;2023-06-14T03:37:09;18.60;89.20
20998;DHT22;10657;51.276;6.390;2023-06-14T03:39:35;18.60;90.10
20998;DHT22;10657;51.276;6.390;2023-06-14T03:42:03;18.50;91.00
20998;DHT22;10657;51.276;6.390;2023-06-14T03:44:30;18.50;91.00
20998;DHT22;10657;51.276;6.390;2023-06-14T03:46:57;18.60;91.00
20998;DHT22;10657;51.276;6.390;2023-06-14T03:49:23;18.50;91.20
20998;DHT22;10657;51.276;6.390;2023-06-14T03:51:50;18.60;91.10
20998;DHT22;10657;51.276;6.390;2023-06-14T03:54:18;18.50;91.30
20998;DHT22;10657;51.276;6.390;2023-06-14T03:57:05;18.60;91.10
20998;DHT22;10657;51.276;6.390;2023-06-14T03:59:32;18.50;91.40
20998;DHT22;10657;51.276;6.390;2023-06-14T04:01:59;18.50;91.70
20998;DHT22;10657;51.276;6.390;2023-06-14T04:04:25;18.40;91.70
20998;DHT22;10657;51.276;6.390;2023-06-14T04:06:56;18.30;92.10
20998;DHT22;10657;51.276;6.390;2023-06-14T04:09:27;18.30;92.00
20998;DHT22;10657;51.276;6.390;2023-06-14T04:11:53;18.30;91.70
20998;DHT22;10657;51.276;6.390;2023-06-14T04:14:20;18.40;92.00
20998;DHT22;10657;51.276;6.390;2023-06-14T04:16:48;18.40;91.80
20998;DHT22;10657;51.276;6.390;2023-06-14T04:19:15;18.40;91.60
20998;DHT22;10657;51.276;6.390;2023-06-14T04:21:42;18.40;91.60
20998;DHT22;10657;51.276;6.390;2023-06-14T04:24:09;18.50;92.40
20998;DHT22;10657;51.276;6.390;2023-06-14T04:26:41;18.50;91.60
20998;DHT22;10657;51.276;6.390;2023-06-14T04:29:11;18.50;91.70
20998;DHT22;10657;51.276;6.390;2023-06-14T04:31:43;18.50;92.20
20998;DHT22;10657;51.276;6.390;2023-06-14T04:34:12;18.60;92.70
20998;DHT22;10657;51.276;6.390;2023-06-14T04:36:43;18.60;93.20
20998;DHT22;10657;51.276;6.390;2023-06-14T04:39:16;18.50;93.10
20998;DHT22;10657;51.276;6.390;2023-06-14T04:41:45;18.50;93.50
20998;DHT22;10657;51.276;6.390;2023-06-14T04:44:13;18.50;93.00
20998;DHT22;10657;51.276;6.390;2023-06-14T04:46:40;18.60;92.80
20998;DHT22;10657;51.276;6.390;2023-06-14T04:49:17;18.60;92.70
20998;DHT22;10657;51.276;6.390;2023-06-14T04:51:45;18.60;92.90
20998;DHT22;10657;51.276;6.390;2023-06-14T04:54:12;18.60;93.20
20998;DHT22;10657;51.276;6.390;2023-06-14T04:56:42;18.70;93.10
20998;DHT22;10657;51.276;6.390;2023-06-14T04:59:10;18.60;92.70
20998;DHT22;10657;51.276;6.390;2023-06-14T05:01:38;18.60;93.00
20998;DHT22;10657;51.276;6.390;2023-06-14T05:04:05;18.60;92.70
20998;DHT22;10657;51.276;6.390;2023-06-14T05:06:32;18.60;92.30
20998;DHT22;10657;51.276;6.390;2023-06-14T05:08:58;18.70;92.20
20998;DHT22;10657;51.276;6.390;2023-06-14T05:11:25;18.70;92.20
20998;DHT22;10657;51.276;6.390;2023-06-14T05:13:54;18.70;92.30
20998;DHT22;10657;51.276;6.390;2023-06-14T05:16:21;18.80;92.30
20998;DHT22;10657;51.276;6.390;2023-06-14T05:18:49;18.90;92.30
20998;DHT22;10657;51.276;6.390;2023-06-14T05:21:17;18.90;92.10
20998;DHT22;10657;51.276;6.390;2023-06-14T05:23:45;19.00;92.10
20998;DHT22;10657;51.276;6.390;2023-06-14T05:26:12;19.00;92.50
20998;DHT22;10657;51.276;6.390;2023-06-14T05:28:39;19.00;92.40
20998;DHT22;10657;51.276;6.390;2023-06-14T05:31:06;19.00;92.60
20998;DHT22;10657;51.276;6.390;2023-06-14T05:33:32;19.00;92.90
20998;DHT22;10657;51.276;6.390;2023-06-14T05:35:59;19.10;93.20
20998;DHT22;10657;51.276;6.390;2023-06-14T05:38:26;19.10;93.30
20998;DHT22;10657;51.276;6.390;2023-06-14T05:40:53;19.10;93.60
20998;DHT22;10657;51.276;6.390;2023-06-14T05:43:20;19.20;93.30
20998;DHT22;10657;51.276;6.390;2023-06-14T05:45:47;19.20;93.00
20998;DHT22;10657;51.276;6.390;2023-06-14T05:48:15;19.30;92.30
20998;DHT22;10657;51.276;6.390;2023-06-14T05:50:42;19.40;91.80
20998;DHT22;10657;51.276;6.390;2023-06-14T05:53:08;19.40;90.20
20998;DHT22;10657;51.276;6.390;2023-06-14T05:55:35;19.40;88.20
20998;DHT22;10657;51.276;6.390;2023-06-14T05:58:03;19.50;87.90
20998;DHT22;10657;51.276;6.390;2023-06-14T06:00:30;19.50;86.30
20998;DHT22;10657;51.276;6.390;2023-06-14T06:02:57;19.50;86.00
20998;DHT22;10657;51.276;6.390;2023-06-14T06:05:24;19.50;84.30
20998;DHT22;10657;51.276;6.390;2023-06-14T06:07:51;19.60;82.60
20998;DHT22;10657;51.276;6.390;2023-06-14T06:10:18;19.60;82.20
20998;DHT22;10657;51.276;6.390;2023-06-14T06:12:44;19.70;82.80
20998;DHT22;10657;51.276;6.390;2023-06-14T06:15:11;19.70;83.40
20998;DHT22;10657;51.276;6.390;2023-06-14T06:17:39;19.70;83.50
20998;DHT22;10657;51.276;6.390;2023-06-14T06:20:21;19.80;83.10
20998;DHT22;10657;51.276;6.390;2023-06-14T06:22:54;19.80;82.00
20998;DHT22;10657;51.276;6.390;2023-06-14T06:25:21;19.90;81.50
20998;DHT22;10657;51.276;6.390;2023-06-14T06:27:48;19.90;80.80
20998;DHT22;10657;51.276;6.390;2023-06-14T06:30:16;20.00;81.30
20998;DHT22;10657;51.276;6.390;2023-06-14T06:32:42;20.00;81.60
20998;DHT22;10657;51.276;6.390;2023-06-14T06:35:09;20.00;80.90
20998;DHT22;10657;51.276;6.390;2023-06-14T06:37:37;20.00;80.20
20998;DHT22;10657;51.276;6.390;2023-06-14T06:40:05;20.10;80.10
20998;DHT22;10657;51.276;6.390;2023-06-14T06:42:32;20.10;79.10
20998;DHT22;10657;51.276;6.390;2023-06-14T06:44:59;20.10;79.80
20998;DHT22;10657;51.276;6.390;2023-06-14T06:47:26;20.20;80.10
20998;DHT22;10657;51.276;6.390;2023-06-14T06:49:53;20.30;81.00
20998;DHT22;10657;51.276;6.390;2023-06-14T06:52:20;20.20;79.10
20998;DHT22;10657;51.276;6.390;2023-06-14T06:54:47;20.30;78.70
20998;DHT22;10657;51.276;6.390;2023-06-14T06:57:15;20.30;80.30
20998;DHT22;10657;51.276;6.390;2023-06-14T06:59:42;20.40;79.70
20998;DHT22;10657;51.276;6.390;2023-06-14T07:02:08;20.50;80.30
20998;DHT22;10657;51.276;6.390;2023-06-14T07:04:35;20.50;79.10
20998;DHT22;10657;51.276;6.390;2023-06-14T07:07:03;20.60;79.70
20998;DHT22;10657;51.276;6.390;2023-06-14T07:09:30;20.60;80.40
20998;DHT22;10657;51.276;6.390;2023-06-14T07:11:56;20.60;78.10
20998;DHT22;10657;51.276;6.390;2023-06-14T07:14:23;20.70;78.10
20998;DHT22;10657;51.276;6.390;2023-06-14T07:16:50;20.70;78.10
20998;DHT22;10657;51.276;6.390;2023-06-14T07:19:17;20.80;79.10
20998;DHT22;10657;51.276;6.390;2023-06-14T07:21:44;20.80;78.20
20998;DHT22;10657;51.276;6.390;2023-06-14T07:24:11;20.80;78.60
20998;DHT22;10657;51.276;6.390;2023-06-14T07:26:38;20.90;78.00
20998;DHT22;10657;51.276;6.390;2023-06-14T07:29:04;21.00;77.40
20998;DHT22;10657;51.276;6.390;2023-06-14T07:31:31;21.00;75.50
20998;DHT22;10657;51.276;6.390;2023-06-14T07:33:58;21.10;74.20
20998;DHT22;10657;51.276;6.390;2023-06-14T07:36:25;21.10;73.20
20998;DHT22;10657;51.276;6.390;2023-06-14T07:38:52;21.20;74.00
20998;DHT22;10657;51.276;6.390;2023-06-14T07:41:19;21.30;71.90
20998;DHT22;10657;51.276;6.390;2023-06-14T07:43:45;21.30;72.00
20998;DHT22;10657;51.276;6.390;2023-06-14T07:46:12;21.40;70.80
20998;DHT22;10657;51.276;6.390;2023-06-14T07:48:39;21.40;69.10
20998;DHT22;10657;51.276;6.390;2023-06-14T07:51:07;21.40;67.10
20998;DHT22;10657;51.276;6.390;2023-06-14T07:53:33;21.40;67.20
20998;DHT22;10657;51.276;6.390;2023-06-14T07:56:00;21.50;65.10
20998;DHT22;10657;51.276;6.390;2023-06-14T07:58:27;21.50;63.60
20998;DHT22;10657;51.276;6.390;2023-06-14T08:00:53;21.50;64.10
20998;DHT22;10657;51.276;6.390;2023-06-14T08:03:20;21.50;63.70
20998;DHT22;10657;51.276;6.390;2023-06-14T08:05:47;21.60;62.30
20998;DHT22;10657;51.276;6.390;2023-06-14T08:08:14;21.70;63.10
20998;DHT22;10657;51.276;6.390;2023-06-14T08:10:41;21.70;63.30
20998;DHT22;10657;51.276;6.390;2023-06-14T08:13:08;21.80;61.80
20998;DHT22;10657;51.276;6.390;2023-06-14T08:15:36;21.70;61.30
20998;DHT22;10657;51.276;6.390;2023-06-14T08:18:03;21.80;62.70
20998;DHT22;10657;51.276;6.390;2023-06-14T08:20:30;21.90;63.10
20998;DHT22;10657;51.276;6.390;2023-06-14T08:22:58;21.90;60.30
20998;DHT22;10657;51.276;6.390;2023-06-14T08:25:25;21.90;59.60
20998;DHT22;10657;51.276;6.390;2023-06-14T08:27:52;22.00;61.00
20998;DHT22;10657;51.276;6.390;2023-06-14T08:30:19;22.00;60.90
20998;DHT22;10657;51.276;6.390;2023-06-14T08:32:45;22.10;59.00
20998;DHT22;10657;51.276;6.390;2023-06-14T08:35:19;22.10;58.30
20998;DHT22;10657;51.276;6.390;2023-06-14T08:37:46;22.20;57.30
20998;DHT22;10657;51.276;6.390;2023-06-14T08:40:22;22.20;56.60
20998;DHT22;10657;51.276;6.390;2023-06-14T08:42:54;22.20;56.40
20998;DHT22;10657;51.276;6.390;2023-06-14T08:45:23;22.30;58.00
20998;DHT22;10657;51.276;6.390;2023-06-14T08:47:54;22.30;56.80
20998;DHT22;10657;51.276;6.390;2023-06-14T08:50:26;22.40;59.50
20998;DHT22;10657;51.276;6.390;2023-06-14T08:53:00;22.40;56.00
20998;DHT22;10657;51.276;6.390;2023-06-14T08:55:30;22.40;54.80
20998;DHT22;10657;51.276;6.390;2023-06-14T08:58:02;22.40;55.40
20998;DHT22;10657;51.276;6.390;2023-06-14T09:00:30;22.50;55.10
20998;DHT22;10657;51.276;6.390;2023-06-14T09:02:59;22.50;55.70
20998;DHT22;10657;51.276;6.390;2023-06-14T09:05:26;22.50;56.80
20998;DHT22;10657;51.276;6.390;2023-06-14T09:07:54;22.60;57.80
20998;DHT22;10657;51.276;6.390;2023-06-14T09:10:22;22.60;58.30
20998;DHT22;10657;51.276;6.390;2023-06-14T09:12:51;22.70;56.20
20998;DHT22;10657;51.276;6.390;2023-06-14T09:15:18;22.70;56.50
20998;DHT22;10657;51.276;6.390;2023-06-14T09:17:45;22.70;58.30
20998;DHT22;10657;51.276;6.390;2023-06-14T09:20:12;22.80;57.00
20998;DHT22;10657;51.276;6.390;2023-06-14T09:22:46;22.70;57.00
20998;DHT22;10657;51.276;6.390;2023-06-14T09:25:13;22.80;57.90
20998;DHT22;10657;51.276;6.390;2023-06-14T09:27:59;22.90;58.20
20998;DHT22;10657;51.276;6.390;2023-06-14T09:30:26;22.90;57.80
20998;DHT22;10657;51.276;6.390;2023-06-14T09:32:53;22.90;59.30
20998;DHT22;10657;51.276;6.390;2023-06-14T09:35:20;22.90;58.00
20998;DHT22;10657;51.276;6.390;2023-06-14T09:37:47;22.90;58.10
20998;DHT22;10657;51.276;6.390;2023-06-14T09:40:20;22.90;59.20
20998;DHT22;10657;51.276;6.390;2023-06-14T09:42:47;23.00;58.70
20998;DHT22;10657;51.276;6.390;2023-06-14T09:45:14;23.00;57.20
20998;DHT22;10657;51.276;6.390;2023-06-14T09:47:47;23.00;57.90
20998;DHT22;10657;51.276;6.390;2023-06-14T09:50:32;23.00;58.90
20998;DHT22;10657;51.276;6.390;2023-06-14T09:53:05;23.00;60.30
20998;DHT22;10657;51.276;6.390;2023-06-14T09:55:35;23.10;60.70
20998;DHT22;10657;51.276;6.390;2023-06-14T09:58:07;23.10;58.30
20998;DHT22;10657;51.276;6.390;2023-06-14T10:00:35;23.10;58.00
20998;DHT22;10657;51.276;6.390;2023-06-14T10:03:10;23.10;59.50
20998;DHT22;10657;51.276;6.390;2023-06-14T10:05:37;23.10;58.80
20998;DHT22;10657;51.276;6.390;2023-06-14T10:08:10;23.10;60.60
20998;DHT22;10657;51.276;6.390;2023-06-14T10:10:39;23.20;60.80
20998;DHT22;10657;51.276;6.390;2023-06-14T10:13:07;23.10;59.40
20998;DHT22;10657;51.276;6.390;2023-06-14T10:23:56;23.20;60.50
20998;DHT22;10657;51.276;6.390;2023-06-14T10:26:26;23.20;59.70
20998;DHT22;10657;51.276;6.390;2023-06-14T10:29:05;23.20;61.00
20998;DHT22;10657;51.276;6.390;2023-06-14T10:31:42;23.10;59.10
20998;DHT22;10657;51.276;6.390;2023-06-14T10:34:09;23.20;60.40
20998;DHT22;10657;51.276;6.390;2023-06-14T10:36:37;23.30;60.60
20998;DHT22;10657;51.276;6.390;2023-06-14T10:39:18;23.40;60.10
20998;DHT22;10657;51.276;6.390;2023-06-14T10:41:54;23.50;60.00
20998;DHT22;10657;51.276;6.390;2023-06-14T10:52:39;23.50;58.60
20998;DHT22;10657;51.276;6.390;2023-06-14T10:57:52;23.60;58.10
20998;DHT22;10657;51.276;6.390;2023-06-14T11:00:30;23.70;57.30
20998;DHT22;10657;51.276;6.390;2023-06-14T11:05:54;23.80;57.50
20998;DHT22;10657;51.276;6.390;2023-06-14T11:08:47;23.70;56.40
20998;DHT22;10657;51.276;6.390;2023-06-14T11:11:21;23.70;56.70
20998;DHT22;10657;51.276;6.390;2023-06-14T11:13:51;23.80;57.10
20998;DHT22;10657;51.276;6.390;2023-06-14T11:16:19;23.90;58.50
20998;DHT22;10657;51.276;6.390;2023-06-14T11:18:46;24.00;58.40
20998;DHT22;10657;51.276;6.390;2023-06-14T11:21:17;24.00;58.30
20998;DHT22;10657;51.276;6.390;2023-06-14T11:23:53;24.00;56.50
20998;DHT22;10657;51.276;6.390;2023-06-14T11:26:29;24.10;57.70
20998;DHT22;10657;51.276;6.390;2023-06-14T11:28:58;24.20;56.70
20998;DHT22;10657;51.276;6.390;2023-06-14T11:31:26;24.10;55.40
20998;DHT22;10657;51.276;6.390;2023-06-14T11:33:55;24.20;57.00
20998;DHT22;10657;51.276;6.390;2023-06-14T11:36:30;24.30;57.10
20998;DHT22;10657;51.276;6.390;2023-06-14T11:39:05;24.30;56.00
20998;DHT22;10657;51.276;6.390;2023-06-14T11:41:43;24.30;56.40
20998;DHT22;10657;51.276;6.390;2023-06-14T11:44:11;24.20;54.70
20998;DHT22;10657;51.276;6.390;2023-06-14T11:46:38;24.30;55.70
20998;DHT22;10657;51.276;6.390;2023-06-14T11:49:06;24.40;56.40
20998;DHT22;10657;51.276;6.390;2023-06-14T11:51:34;24.50;56.50
20998;DHT22;10657;51.276;6.390;2023-06-14T11:54:02;24.60;57.30
20998;DHT22;10657;51.276;6.390;2023-06-14T11:56:30;24.70;57.10
20998;DHT22;10657;51.276;6.390;2023-06-14T11:58:58;24.80;55.90
20998;DHT22;10657;51.276;6.390;2023-06-14T12:01:25;24.90;54.10
20998;DHT22;10657;51.276;6.390;2023-06-14T12:03:53;24.90;54.40
20998;DHT22;10657;51.276;6.390;2023-06-14T12:06:27;25.00;54.40
20998;DHT22;10657;51.276;6.390;2023-06-14T12:08:56;25.10;55.80
20998;DHT22;10657;51.276;6.390;2023-06-14T12:11:23;25.20;53.60
20998;DHT22;10657;51.276;6.390;2023-06-14T12:13:50;25.30;55.20
20998;DHT22;10657;51.276;6.390;2023-06-14T12:16:17;25.40;54.30
20998;DHT22;10657;51.276;6.390;2023-06-14T12:18:43;25.50;54.80
20998;DHT22;10657;51.276;6.390;2023-06-14T12:21:11;25.60;54.10
20998;DHT22;10657;51.276;6.390;2023-06-14T12:23:49;25.70;53.80
20998;DHT22;10657;51.276;6.390;2023-06-14T12:26:17;25.90;52.50
20998;DHT22;10657;51.276;6.390;2023-06-14T12:28:45;25.90;53.10
20998;DHT22;10657;51.276;6.390;2023-06-14T12:31:14;26.00;55.00
20998;DHT22;10657;51.276;6.390;2023-06-14T12:33:41;26.00;53.70
20998;DHT22;10657;51.276;6.390;2023-06-14T12:36:09;26.30;54.80
20998;DHT22;10657;51.276;6.390;2023-06-14T12:38:37;26.40;53.60
20998;DHT22;10657;51.276;6.390;2023-06-14T12:41:04;26.50;54.10
20998;DHT22;10657;51.276;6.390;2023-06-14T12:43:31;26.50;54.30
20998;DHT22;10657;51.276;6.390;2023-06-14T12:45:57;26.70;53.40
20998;DHT22;10657;51.276;6.390;2023-06-14T12:48:24;26.70;53.50
20998;DHT22;10657;51.276;6.390;2023-06-14T12:50:53;26.70;54.30
20998;DHT22;10657;51.276;6.390;2023-06-14T12:53:20;27.00;53.70
20998;DHT22;10657;51.276;6.390;2023-06-14T12:55:50;27.10;53.00
20998;DHT22;10657;51.276;6.390;2023-06-14T12:58:17;27.30;52.60
20998;DHT22;10657;51.276;6.390;2023-06-14T13:00:47;27.50;53.50
20998;DHT22;10657;51.276;6.390;2023-06-14T13:03:14;27.60;53.20
20998;DHT22;10657;51.276;6.390;2023-06-14T13:05:41;27.80;52.60
20998;DHT22;10657;51.276;6.390;2023-06-14T13:08:09;27.90;53.00
20998;DHT22;10657;51.276;6.390;2023-06-14T13:10:36;27.90;53.60
20998;DHT22;10657;51.276;6.390;2023-06-14T13:13:02;28.10;52.90
20998;DHT22;10657;51.276;6.390;2023-06-14T13:15:29;28.40;52.50
20998;DHT22;10657;51.276;6.390;2023-06-14T13:17:56;28.50;52.50
20998;DHT22;10657;51.276;6.390;2023-06-14T13:20:23;28.70;51.70
20998;DHT22;10657;51.276;6.390;2023-06-14T13:22:50;28.80;50.50
20998;DHT22;10657;51.276;6.390;2023-06-14T13:25:17;28.60;51.30
20998;DHT22;10657;51.276;6.390;2023-06-14T13:27:44;28.90;51.70
20998;DHT22;10657;51.276;6.390;2023-06-14T13:30:11;28.90;49.50
20998;DHT22;10657;51.276;6.390;2023-06-14T13:32:38;28.80;50.40
20998;DHT22;10657;51.276;6.390;2023-06-14T13:35:05;28.90;50.90
20998;DHT22;10657;51.276;6.390;2023-06-14T13:37:32;29.10;51.10
20998;DHT22;10657;51.276;6.390;2023-06-14T13:39:59;29.00;49.90
20998;DHT22;10657;51.276;6.390;2023-06-14T13:42:26;29.40;49.80
20998;DHT22;10657;51.276;6.390;2023-06-14T13:44:54;29.20;50.40
20998;DHT22;10657;51.276;6.390;2023-06-14T13:47:21;28.90;51.00
20998;DHT22;10657;51.276;6.390;2023-06-14T13:49:48;29.00;49.90
20998;DHT22;10657;51.276;6.390;2023-06-14T13:52:14;29.00;50.50
20998;DHT22;10657;51.276;6.390;2023-06-14T13:54:42;29.40;50.40
20998;DHT22;10657;51.276;6.390;2023-06-14T13:57:09;29.40;49.30
20998;DHT22;10657;51.276;6.390;2023-06-14T13:59:40;29.70;50.20
20998;DHT22;10657;51.276;6.390;2023-06-14T14:02:07;29.90;49.50
20998;DHT22;10657;51.276;6.390;2023-06-14T14:04:34;29.90;48.90
20998;DHT22;10657;51.276;6.390;2023-06-14T14:07:05;29.80;49.80
20998;DHT22;10657;51.276;6.390;2023-06-14T14:09:33;30.00;50.10
20998;DHT22;10657;51.276;6.390;2023-06-14T14:12:01;30.10;48.30
20998;DHT22;10657;51.276;6.390;2023-06-14T14:14:32;30.30;49.30
20998;DHT22;10657;51.276;6.390;2023-06-14T14:16:58;30.10;50.30
20998;DHT22;10657;51.276;6.390;2023-06-14T14:19:25;30.40;50.00
20998;DHT22;10657;51.276;6.390;2023-06-14T14:21:52;30.60;48.90
20998;DHT22;10657;51.276;6.390;2023-06-14T14:24:20;30.70;48.60
20998;DHT22;10657;51.276;6.390;2023-06-14T14:26:47;30.90;49.30
20998;DHT22;10657;51.276;6.390;2023-06-14T14:29:15;30.80;49.50
20998;DHT22;10657;51.276;6.390;2023-06-14T14:31:43;31.00;48.30
20998;DHT22;10657;51.276;6.390;2023-06-14T14:34:10;30.90;49.10
20998;DHT22;10657;51.276;6.390;2023-06-14T14:36:36;30.90;48.60
20998;DHT22;10657;51.276;6.390;2023-06-14T14:39:04;31.10;48.60
20998;DHT22;10657;51.276;6.390;2023-06-14T14:41:31;31.10;48.90
20998;DHT22;10657;51.276;6.390;2023-06-14T14:43:58;31.00;48.90
20998;DHT22;10657;51.276;6.390;2023-06-14T14:46:27;31.20;48.90
20998;DHT22;10657;51.276;6.390;2023-06-14T14:48:54;31.20;49.10
20998;DHT22;10657;51.276;6.390;2023-06-14T14:51:21;31.30;48.50
20998;DHT22;10657;51.276;6.390;2023-06-14T14:53:48;31.50;47.20
20998;DHT22;10657;51.276;6.390;2023-06-14T14:56:15;31.50;47.50
20998;DHT22;10657;51.276;6.390;2023-06-14T14:58:42;31.70;46.90
20998;DHT22;10657;51.276;6.390;2023-06-14T15:01:08;31.90;47.40
20998;DHT22;10657;51.276;6.390;2023-06-14T15:03:35;31.70;46.60
20998;DHT22;10657;51.276;6.390;2023-06-14T15:06:22;31.80;46.50
20998;DHT22;10657;51.276;6.390;2023-06-14T15:08:49;31.50;46.30
20998;DHT22;10657;51.276;6.390;2023-06-14T15:11:15;31.70;47.70
20998;DHT22;10657;51.276;6.390;2023-06-14T15:13:42;31.70;47.60
20998;DHT22;10657;51.276;6.390;2023-06-14T15:16:09;31.60;46.40
20998;DHT22;10657;51.276;6.390;2023-06-14T15:18:36;31.50;48.30
20998;DHT22;10657;51.276;6.390;2023-06-14T15:21:02;31.60;47.30
20998;DHT22;10657;51.276;6.390;2023-06-14T15:23:29;31.60;46.90
20998;DHT22;10657;51.276;6.390;2023-06-14T15:25:56;31.80;47.20
20998;DHT22;10657;51.276;6.390;2023-06-14T15:28:22;31.60;46.40
20998;DHT22;10657;51.276;6.390;2023-06-14T15:30:52;31.80;48.10
20998;DHT22;10657;51.276;6.390;2023-06-14T15:33:18;32.00;46.40
20998;DHT22;10657;51.276;6.390;2023-06-14T15:35:47;32.30;47.90
20998;DHT22;10657;51.276;6.390;2023-06-14T15:38:14;32.20;46.90
20998;DHT22;10657;51.276;6.390;2023-06-14T15:40:40;32.40;46.50
20998;DHT22;10657;51.276;6.390;2023-06-14T15:43:07;32.60;46.60
20998;DHT22;10657;51.276;6.390;2023-06-14T15:45:34;32.30;47.60
20998;DHT22;10657;51.276;6.390;2023-06-14T15:48:00;32.00;46.90
20998;DHT22;10657;51.276;6.390;2023-06-14T15:50:27;32.10;46.90
20998;DHT22;10657;51.276;6.390;2023-06-14T15:52:54;32.20;46.50
20998;DHT22;10657;51.276;6.390;2023-06-14T15:55:23;32.10;46.40
20998;DHT22;10657;51.276;6.390;2023-06-14T15:57:49;32.10;46.80
20998;DHT22;10657;51.276;6.390;2023-06-14T16:00:23;31.90;46.40
20998;DHT22;10657;51.276;6.390;2023-06-14T16:02:52;31.90;45.70